Time;durP1;ratioP1;P1;durP2;ratioP2;P2;SDS_P1;SDS_P2;PMS_P1;PMS_P2;Temp;Humidity;BMP_temperature;BMP_pressure;BME280_temperature;BME280_humidity;BME280_pressure;Samples;Min_cycle;Max_cycle;Signal;HPM_P1;HPM_P2
2021/03/06 00:01:05;;;;;;;2.80;1.52;;;4.90;1.00;;;;;;5104154;28;20275;-76
2021/03/06 00:03:33;;;;;;;1.70;1.60;;;4.90;1.00;;;;;;5090452;28;20805;-72
2021/03/06 00:06:00;;;;;;;1.77;1.67;;;5.00;1.00;;;;;;5105678;28;20205;-73
2021/03/06 00:08:28;;;;;;;2.58;1.70;;;4.90;1.00;;;;;;5103046;28;20233;-76
2021/03/06 00:10:57;;;;;;;1.93;1.70;;;4.80;1.00;;;;;;5108700;28;20195;-77
2021/03/06 00:13:25;;;;;;;2.13;1.92;;;4.90;1.00;;;;;;5107499;28;20464;-75
2021/03/06 00:15:53;;;;;;;5.13;1.90;;;4.90;1.00;;;;;;5106965;28;20229;-77
2021/03/06 00:18:21;;;;;;;2.70;2.30;;;4.90;1.00;;;;;;5076943;28;20443;-76
2021/03/06 00:20:49;;;;;;;3.40;2.40;;;5.10;1.00;;;;;;5102317;28;21158;-75
2021/03/06 00:23:17;;;;;;;2.50;1.85;;;5.40;1.00;;;;;;5105058;28;20199;-77
2021/03/06 00:25:44;;;;;;;4.10;1.80;;;5.10;1.00;;;;;;5107924;28;20611;-76
2021/03/06 00:28:11;;;;;;;2.30;2.10;;;4.90;1.00;;;;;;5104920;28;20218;-76
2021/03/06 00:30:38;;;;;;;2.45;1.73;;;4.80;1.00;;;;;;5104509;28;20202;-76
2021/03/06 00:33:06;;;;;;;2.92;1.50;;;4.70;1.00;;;;;;5106016;28;20213;-76
2021/03/06 00:35:34;;;;;;;3.63;1.77;;;4.60;1.00;;;;;;5108330;28;20199;-76
2021/03/06 00:38:03;;;;;;;2.42;2.25;;;4.60;1.00;;;;;;5085107;28;20215;-76
2021/03/06 00:40:30;;;;;;;2.53;2.07;;;4.50;1.00;;;;;;5077631;28;20330;-76
2021/03/06 00:42:58;;;;;;;4.72;2.25;;;4.60;1.00;;;;;;5095005;28;20457;-76
2021/03/06 00:45:25;;;;;;;2.77;2.07;;;4.60;1.00;;;;;;5099463;28;20196;-75
2021/03/06 00:47:53;;;;;;;3.72;1.90;;;4.60;1.00;;;;;;5078485;28;20548;-76
2021/03/06 00:50:26;;;;;;;2.38;2.17;;;4.70;1.00;;;;;;5088552;28;21162;-75
2021/03/06 00:52:53;;;;;;;1.90;1.50;;;4.50;1.00;;;;;;5111758;28;20250;-75
2021/03/06 00:55:21;;;;;;;2.50;1.85;;;4.50;1.00;;;;;;5093387;28;20620;-76
2021/03/06 00:57:49;;;;;;;2.65;1.85;;;4.50;1.00;;;;;;5106556;28;20713;-75
2021/03/06 01:00:17;;;;;;;1.50;1.40;;;4.50;1.00;;;;;;5105104;28;20902;-75
2021/03/06 01:02:44;;;;;;;2.08;1.60;;;4.50;1.00;;;;;;5099901;28;20663;-74
2021/03/06 01:05:13;;;;;;;2.50;1.90;;;4.50;1.00;;;;;;5105099;28;20681;-76
2021/03/06 01:07:41;;;;;;;2.03;1.90;;;4.50;1.00;;;;;;5107600;28;20265;-75
2021/03/06 01:10:12;;;;;;;3.20;2.13;;;4.60;1.00;;;;;;5111650;28;20260;-74
2021/03/06 01:12:40;;;;;;;2.70;2.50;;;4.50;1.00;;;;;;5107713;28;20201;-73
2021/03/06 01:15:08;;;;;;;4.23;2.17;;;4.50;1.00;;;;;;5083655;28;20562;-74
2021/03/06 01:17:36;;;;;;;2.17;1.98;;;4.50;1.00;;;;;;5103802;28;20475;-73
2021/03/06 01:20:04;;;;;;;4.03;2.17;;;4.50;1.00;;;;;;5102719;28;20203;-74
2021/03/06 01:22:31;;;;;;;2.00;1.90;;;4.50;1.00;;;;;;5089973;28;20875;-75
2021/03/06 01:24:58;;;;;;;3.35;1.73;;;4.50;1.00;;;;;;5106968;28;20198;-75
2021/03/06 01:27:26;;;;;;;3.97;2.17;;;4.50;1.00;;;;;;5103206;28;20229;-75
2021/03/06 01:29:53;;;;;;;2.42;2.22;;;4.40;1.00;;;;;;5109355;28;20260;-75
2021/03/06 01:32:21;;;;;;;2.00;1.75;;;4.40;1.00;;;;;;5089122;28;20202;-74
2021/03/06 01:34:49;;;;;;;2.35;2.10;;;4.40;1.00;;;;;;5111314;28;20303;-75
2021/03/06 01:37:16;;;;;;;2.47;2.28;;;4.50;1.00;;;;;;5107135;28;20289;-74
2021/03/06 01:39:43;;;;;;;2.00;1.80;;;4.60;1.00;;;;;;5110048;28;20186;-75
2021/03/06 01:42:11;;;;;;;2.42;2.22;;;4.40;1.00;;;;;;5110331;28;20561;-75
2021/03/06 01:44:38;;;;;;;2.33;2.10;;;4.40;1.00;;;;;;5111798;28;20203;-75
2021/03/06 01:47:06;;;;;;;2.40;2.20;;;4.40;1.00;;;;;;5104051;28;20212;-76
2021/03/06 01:49:33;;;;;;;1.85;1.70;;;4.40;1.00;;;;;;5099331;28;20260;-75
2021/03/06 01:52:00;;;;;;;2.15;1.95;;;4.20;1.00;;;;;;5103311;28;20248;-75
2021/03/06 01:54:29;;;;;;;1.80;1.70;;;4.20;1.00;;;;;;5083262;28;20191;-74
2021/03/06 01:56:57;;;;;;;2.10;2.00;;;4.30;1.00;;;;;;5103206;28;20256;-74
2021/03/06 01:59:24;;;;;;;2.22;2.03;;;4.30;1.00;;;;;;5107619;28;20558;-74
2021/03/06 02:01:52;;;;;;;2.53;2.20;;;4.30;1.00;;;;;;5106504;28;20192;-75
2021/03/06 02:04:21;;;;;;;3.15;2.60;;;4.50;1.00;;;;;;5105245;28;20195;-74
2021/03/06 02:06:48;;;;;;;2.15;1.83;;;4.30;1.00;;;;;;5110192;28;20235;-74
2021/03/06 02:09:15;;;;;;;2.47;2.10;;;4.30;1.00;;;;;;5106082;28;20580;-74
2021/03/06 02:11:49;;;;;;;2.08;1.98;;;4.20;1.00;;;;;;5083535;28;20215;-74
2021/03/06 02:14:36;;;;;;;2.22;1.98;;;4.20;1.00;;;;;;5080748;28;20250;-74
2021/03/06 02:17:07;;;;;;;2.03;1.83;;;4.20;1.00;;;;;;5086335;28;20235;-74
2021/03/06 02:20:24;;;;;;;2.75;1.80;;;4.20;1.00;;;;;;5097752;28;20833;-74
2021/03/06 02:23:13;;;;;;;2.83;2.22;;;4.20;1.00;;;;;;5040777;28;20664;-73
2021/03/06 02:26:02;;;;;;;2.97;2.15;;;4.20;1.00;;;;;;5098824;28;20272;-74
2021/03/06 02:28:41;;;;;;;2.45;2.25;;;4.20;1.00;;;;;;5107429;28;20258;-74
2021/03/06 02:31:11;;;;;;;2.65;2.40;;;4.20;1.00;;;;;;5099720;28;20659;-75
2021/03/06 02:33:41;;;;;;;2.72;2.53;;;4.20;1.00;;;;;;5106030;28;20198;-74
2021/03/06 02:36:13;;;;;;;4.38;2.42;;;4.20;1.00;;;;;;5087087;28;20342;-75
2021/03/06 02:38:41;;;;;;;2.88;2.60;;;4.20;1.00;;;;;;5107678;28;20221;-74
2021/03/06 02:41:11;;;;;;;2.88;2.20;;;4.30;1.00;;;;;;5102201;28;20676;-75
2021/03/06 02:43:38;;;;;;;2.33;2.13;;;4.10;1.00;;;;;;5099801;28;20195;-74
2021/03/06 02:46:08;;;;;;;2.10;1.90;;;4.10;1.00;;;;;;5090275;28;20939;-74
2021/03/06 02:48:37;;;;;;;2.70;2.50;;;4.10;1.00;;;;;;5100601;28;20681;-74
2021/03/06 02:51:05;;;;;;;3.60;3.30;;;4.10;1.00;;;;;;5087742;28;20254;-75
2021/03/06 02:53:32;;;;;;;2.25;1.75;;;4.10;1.00;;;;;;5101804;28;20198;-74
2021/03/06 02:55:59;;;;;;;2.22;2.03;;;4.10;1.00;;;;;;5096825;28;20806;-74
2021/03/06 02:58:43;;;;;;;2.90;2.58;;;4.10;1.00;;;;;;5107730;28;20238;-74
2021/03/06 03:01:17;;;;;;;2.50;2.30;;;4.10;1.00;;;;;;5105911;28;20215;-74
2021/03/06 03:03:55;;;;;;;2.10;1.85;;;4.00;1.00;;;;;;5106057;28;20193;-75
2021/03/06 03:06:26;;;;;;;2.05;1.85;;;4.00;1.00;;;;;;5105037;28;20292;-74
2021/03/06 03:09:07;;;;;;;3.38;2.60;;;4.00;1.00;;;;;;5108440;28;20214;-76
2021/03/06 03:11:45;;;;;;;2.97;2.42;;;4.00;1.00;;;;;;5104889;28;20214;-75
2021/03/06 03:14:16;;;;;;;4.05;2.13;;;4.00;1.00;;;;;;5101429;28;20730;-73
2021/03/06 03:16:52;;;;;;;2.53;2.33;;;4.00;1.00;;;;;;5104396;28;20294;-75
2021/03/06 03:19:30;;;;;;;5.35;2.40;;;4.00;1.00;;;;;;5106486;28;20197;-74
2021/03/06 03:22:00;;;;;;;2.50;1.85;;;3.90;1.00;;;;;;5087454;28;20632;-75
2021/03/06 03:24:34;;;;;;;2.33;2.13;;;3.90;1.00;;;;;;5102134;28;20205;-75
2021/03/06 03:27:06;;;;;;;2.97;2.67;;;3.80;1.00;;;;;;5104509;28;20218;-76
2021/03/06 03:29:34;;;;;;;2.50;2.08;;;3.80;1.00;;;;;;5105463;28;20747;-76
2021/03/06 03:32:03;;;;;;;2.63;2.42;;;3.80;1.00;;;;;;5107369;28;20202;-75
2021/03/06 03:34:35;;;;;;;2.08;1.70;;;3.80;1.00;;;;;;5085993;28;20266;-74
2021/03/06 03:37:03;;;;;;;2.13;1.92;;;3.80;1.00;;;;;;5105638;28;20218;-76
2021/03/06 03:39:31;;;;;;;2.22;1.80;;;3.80;1.00;;;;;;5082716;28;20204;-75
2021/03/06 03:41:59;;;;;;;3.50;2.50;;;3.70;1.00;;;;;;5086788;28;20207;-75
2021/03/06 03:44:27;;;;;;;2.50;2.30;;;3.70;1.00;;;;;;5086078;28;20208;-74
2021/03/06 03:46:55;;;;;;;2.95;1.90;;;3.80;1.00;;;;;;5101647;28;20218;-75
2021/03/06 03:49:22;;;;;;;4.10;2.53;;;3.70;1.00;;;;;;5082301;28;20234;-74
2021/03/06 03:51:50;;;;;;;2.30;2.10;;;3.70;1.00;;;;;;5097429;28;20197;-73
2021/03/06 03:54:17;;;;;;;2.10;1.90;;;3.90;1.00;;;;;;5088564;28;20198;-76
2021/03/06 03:56:45;;;;;;;1.92;1.83;;;3.70;1.00;;;;;;5105582;28;20217;-74
2021/03/06 03:59:12;;;;;;;2.65;1.90;;;3.70;1.00;;;;;;5102116;28;20193;-73
2021/03/06 04:01:43;;;;;;;2.40;2.08;;;3.70;1.00;;;;;;5105626;28;20192;-73
2021/03/06 04:04:28;;;;;;;2.00;1.80;;;3.60;1.00;;;;;;5101112;28;20196;-74
2021/03/06 04:06:56;;;;;;;2.20;2.10;;;3.60;1.00;;;;;;5107390;28;20709;-74
2021/03/06 04:09:23;;;;;;;2.05;1.85;;;3.70;1.00;;;;;;5102488;28;20211;-73
2021/03/06 04:11:51;;;;;;;2.63;2.00;;;3.60;1.00;;;;;;5084733;28;20708;-73
2021/03/06 04:14:19;;;;;;;2.78;2.20;;;3.50;1.00;;;;;;5086620;28;20744;-73
2021/03/06 04:16:46;;;;;;;2.05;1.95;;;3.60;1.00;;;;;;5103943;28;20222;-74
2021/03/06 04:19:14;;;;;;;2.42;1.95;;;3.60;1.00;;;;;;5087961;28;20209;-74
2021/03/06 04:21:41;;;;;;;2.58;2.38;;;3.50;1.00;;;;;;5103161;28;20238;-75
2021/03/06 04:24:09;;;;;;;2.30;2.20;;;3.50;1.00;;;;;;5104298;28;20208;-75
2021/03/06 04:26:50;;;;;;;3.42;2.30;;;3.60;1.00;;;;;;5123901;27;20711;-75
2021/03/06 04:29:18;;;;;;;2.42;2.22;;;3.50;1.00;;;;;;5100377;28;20240;-73
2021/03/06 04:31:45;;;;;;;1.92;1.70;;;3.50;1.00;;;;;;5111703;28;20285;-74
2021/03/06 04:34:13;;;;;;;2.55;2.00;;;3.50;1.00;;;;;;5109756;28;20217;-76
2021/03/06 04:36:40;;;;;;;5.35;1.75;;;3.70;1.00;;;;;;5109704;28;20220;-75
2021/03/06 04:39:07;;;;;;;2.05;1.90;;;3.50;1.00;;;;;;5111862;28;20253;-75
2021/03/06 04:41:35;;;;;;;1.67;1.58;;;3.50;1.00;;;;;;5109415;28;20604;-75
2021/03/06 04:44:04;;;;;;;2.45;2.25;;;3.40;1.00;;;;;;5089052;28;20192;-76
2021/03/06 04:46:32;;;;;;;2.28;2.08;;;3.40;1.00;;;;;;5109139;28;20216;-76
2021/03/06 04:49:01;;;;;;;3.17;2.22;;;3.40;1.00;;;;;;5108868;28;20325;-76
2021/03/06 04:51:28;;;;;;;1.90;1.80;;;3.40;1.00;;;;;;5124200;27;20197;-76
2021/03/06 04:53:56;;;;;;;2.38;1.52;;;3.40;1.00;;;;;;5108628;28;20260;-74
2021/03/06 04:56:23;;;;;;;2.88;1.80;;;3.40;1.00;;;;;;5108002;28;20203;-75
2021/03/06 04:58:52;;;;;;;2.10;1.90;;;3.40;1.00;;;;;;5110442;28;20230;-76
2021/03/06 05:01:19;;;;;;;2.67;1.90;;;3.40;1.00;;;;;;5098075;28;20558;-76
2021/03/06 05:03:46;;;;;;;3.28;2.35;;;3.40;1.00;;;;;;5110574;28;20215;-76
2021/03/06 05:06:13;;;;;;;2.08;1.77;;;3.30;1.00;;;;;;5120401;27;20247;-76
2021/03/06 05:08:40;;;;;;;2.25;1.73;;;3.30;1.00;;;;;;5124865;27;20220;-76
2021/03/06 05:11:07;;;;;;;2.47;2.10;;;3.30;1.00;;;;;;5107033;28;20212;-75
2021/03/06 05:13:35;;;;;;;2.85;2.20;;;3.30;1.00;;;;;;5090105;28;20620;-74
2021/03/06 05:16:04;;;;;;;2.85;2.05;;;3.30;1.00;;;;;;5121735;27;20394;-74
2021/03/06 05:18:32;;;;;;;2.38;2.17;;;3.20;1.00;;;;;;5106242;28;20220;-76
2021/03/06 05:21:00;;;;;;;2.00;1.90;;;3.20;1.00;;;;;;5091951;28;20622;-76
2021/03/06 05:23:28;;;;;;;1.90;1.80;;;3.20;1.00;;;;;;5110492;28;20198;-75
2021/03/06 05:25:55;;;;;;;2.50;2.30;;;3.10;1.00;;;;;;5090264;28;20188;-76
2021/03/06 05:28:23;;;;;;;2.10;2.00;;;3.10;1.00;;;;;;5104261;28;20315;-75
2021/03/06 05:30:52;;;;;;;1.90;1.70;;;3.10;1.00;;;;;;5105369;28;20216;-74
2021/03/06 05:33:21;;;;;;;2.33;2.15;;;3.10;1.00;;;;;;5102403;28;20225;-75
2021/03/06 05:35:48;;;;;;;2.08;1.98;;;3.10;1.00;;;;;;5108613;28;20376;-74
2021/03/06 05:38:16;;;;;;;2.33;2.13;;;3.10;1.00;;;;;;5109687;28;20239;-74
2021/03/06 05:40:46;;;;;;;2.58;2.30;;;3.00;1.00;;;;;;5092766;28;20204;-73
2021/03/06 05:43:15;;;;;;;2.35;2.15;;;3.00;1.00;;;;;;5103638;28;20198;-75
2021/03/06 05:45:45;;;;;;;1.95;1.70;;;3.00;1.00;;;;;;5092556;28;20253;-75
2021/03/06 05:48:13;;;;;;;3.03;2.45;;;2.90;1.00;;;;;;5101782;28;20694;-75
2021/03/06 05:50:41;;;;;;;3.80;2.15;;;2.90;1.00;;;;;;5101444;28;20577;-75
2021/03/06 05:53:11;;;;;;;3.80;2.90;;;2.90;1.00;;;;;;5106821;28;20229;-75
2021/03/06 05:55:42;;;;;;;3.55;2.40;;;2.90;1.00;;;;;;5102528;28;20195;-74
2021/03/06 05:58:09;;;;;;;3.45;2.70;;;2.90;1.00;;;;;;5104262;28;20235;-76
2021/03/06 06:00:41;;;;;;;2.10;2.00;;;2.80;1.00;;;;;;5107798;28;20250;-75
2021/03/06 06:03:09;;;;;;;1.90;1.80;;;2.80;1.00;;;;;;5085832;28;20205;-74
2021/03/06 06:05:36;;;;;;;2.85;2.10;;;2.80;1.00;;;;;;5105091;28;20210;-75
2021/03/06 06:08:06;;;;;;;2.55;2.35;;;2.80;1.00;;;;;;5103283;28;20720;-75
2021/03/06 06:10:33;;;;;;;1.67;1.50;;;2.80;1.00;;;;;;5104639;28;20333;-76
2021/03/06 06:13:01;;;;;;;2.92;1.60;;;2.80;1.00;;;;;;5106132;28;20192;-75
2021/03/06 06:15:28;;;;;;;3.47;2.00;;;2.80;1.00;;;;;;5104433;28;20264;-76
2021/03/06 06:17:56;;;;;;;2.45;2.03;;;3.00;1.00;;;;;;5109907;28;20769;-77
2021/03/06 06:20:24;;;;;;;3.70;2.10;;;2.90;1.00;;;;;;5081916;28;20197;-76
2021/03/06 06:23:11;;;;;;;2.95;2.20;;;2.90;1.00;;;;;;5110165;28;20564;-75
2021/03/06 06:25:42;;;;;;;2.33;2.05;;;2.90;1.00;;;;;;5084437;28;20258;-75
2021/03/06 06:28:19;;;;;;;3.42;1.75;;;2.90;1.00;;;;;;5091127;28;20597;-78
2021/03/06 06:31:07;;;;;;;2.25;1.85;;;2.80;1.00;;;;;;5108329;28;20271;-76
2021/03/06 06:33:35;;;;;;;2.25;2.05;;;2.90;1.00;;;;;;5102464;28;20276;-76
2021/03/06 06:36:02;;;;;;;2.15;2.05;;;2.80;1.00;;;;;;5087865;28;20260;-77
2021/03/06 06:38:41;;;;;;;4.47;1.95;;;2.90;1.00;;;;;;5103762;28;20299;-76
2021/03/06 06:41:08;;;;;;;3.05;2.80;;;2.90;1.00;;;;;;5087281;28;20196;-77
2021/03/06 06:43:35;;;;;;;3.50;2.70;;;2.90;1.00;;;;;;5106170;28;21025;-77
2021/03/06 06:46:03;;;;;;;2.58;2.15;;;2.90;1.00;;;;;;5108734;28;20191;-77
2021/03/06 06:48:30;;;;;;;2.35;2.03;;;2.90;1.00;;;;;;5108700;28;20221;-77
2021/03/06 06:51:07;;;;;;;3.00;2.08;;;3.00;1.00;;;;;;5107706;28;20234;-75
2021/03/06 06:53:35;;;;;;;2.90;2.17;;;3.10;1.00;;;;;;5114005;27;20437;-73
2021/03/06 06:56:03;;;;;;;2.60;2.10;;;3.10;1.00;;;;;;5087472;28;20206;-76
2021/03/06 06:58:43;;;;;;;3.22;2.50;;;3.10;1.00;;;;;;5107392;28;20289;-75
2021/03/06 07:01:31;;;;;;;2.95;2.75;;;3.10;1.00;;;;;;5105778;28;20202;-76
2021/03/06 07:04:00;;;;;;;2.28;2.08;;;3.10;1.00;;;;;;5102249;28;20257;-75
2021/03/06 07:06:27;;;;;;;2.45;2.10;;;3.10;1.00;;;;;;5101527;27;20616;-74
2021/03/06 07:09:06;;;;;;;2.97;2.55;;;3.10;1.00;;;;;;5106271;28;20232;-73
2021/03/06 07:11:33;;;;;;;2.38;2.17;;;3.20;1.00;;;;;;5107733;27;20206;-74
2021/03/06 07:14:01;;;;;;;3.85;2.55;;;3.30;1.00;;;;;;5107233;28;20847;-71
2021/03/06 07:17:00;;;;;;;2.55;2.35;;;3.40;1.00;;;;;;5104414;28;20265;-73
2021/03/06 07:19:30;;;;;;;3.58;2.60;;;3.50;1.00;;;;;;5105054;28;20223;-74
2021/03/06 07:21:58;;;;;;;3.85;2.72;;;3.50;1.00;;;;;;5106322;28;20304;-75
2021/03/06 07:24:27;;;;;;;2.78;2.55;;;3.60;1.00;;;;;;5103650;27;20668;-72
2021/03/06 07:26:54;;;;;;;2.83;2.63;;;3.60;1.00;;;;;;5108345;28;20697;-71
2021/03/06 07:29:22;;;;;;;3.33;2.50;;;3.70;1.00;;;;;;5104661;28;20199;-75
2021/03/06 07:31:51;;;;;;;3.50;3.03;;;3.70;1.00;;;;;;5106662;28;20191;-74
2021/03/06 07:34:21;;;;;;;3.03;2.72;;;3.80;1.00;;;;;;5099010;28;20198;-74
2021/03/06 07:36:49;;;;;;;2.80;2.60;;;3.90;1.00;;;;;;5116064;27;20538;-74
2021/03/06 07:39:18;;;;;;;3.30;3.00;;;3.90;1.00;;;;;;5104586;28;20200;-73
2021/03/06 07:41:55;;;;;;;2.40;2.20;;;3.90;1.00;;;;;;5107250;28;20204;-74
2021/03/06 07:44:25;;;;;;;2.60;2.40;;;4.10;1.00;;;;;;5095089;28;20200;-72
2021/03/06 07:46:55;;;;;;;3.22;2.67;;;4.20;1.00;;;;;;5105042;28;20222;-74
2021/03/06 07:49:28;;;;;;;4.13;2.92;;;4.30;1.00;;;;;;5092999;28;20289;-73
2021/03/06 07:51:58;;;;;;;3.33;3.13;;;4.40;1.00;;;;;;5109591;28;20202;-75
2021/03/06 07:54:26;;;;;;;3.30;3.00;;;4.50;1.00;;;;;;5095924;28;20245;-74
2021/03/06 07:56:55;;;;;;;5.40;4.07;;;4.80;1.00;;;;;;5103468;28;20220;-73
2021/03/06 07:59:50;;;;;;;4.25;3.95;;;4.70;1.00;;;;;;5086707;28;20277;-76
2021/03/06 08:02:32;;;;;;;6.80;4.00;;;4.80;1.00;;;;;;5098232;28;20443;-73
2021/03/06 08:05:46;;;;;;;4.93;3.47;;;5.20;1.00;;;;;;5104821;28;20267;-74
2021/03/06 08:08:52;;;;;;;4.88;3.78;;;5.50;1.00;;;;;;5093915;28;20672;-75
2021/03/06 08:11:20;;;;;;;4.32;3.90;;;5.80;1.00;;;;;;5087810;28;20308;-74
2021/03/06 08:13:51;;;;;;;4.60;3.50;;;6.00;1.00;;;;;;5101388;28;20209;-73
2021/03/06 08:16:41;;;;;;;4.75;4.35;;;6.40;1.00;;;;;;5087989;28;20458;-76
2021/03/06 08:19:31;;;;;;;5.87;4.23;;;7.00;1.00;;;;;;5098037;28;20196;-74
2021/03/06 08:22:16;;;;;;;4.80;4.20;;;7.30;1.00;;;;;;5090175;28;20471;-76
2021/03/06 08:24:44;;;;;;;3.90;3.50;;;7.30;1.00;;;;;;5097755;28;20452;-75
2021/03/06 08:27:19;;;;;;;5.40;4.13;;;7.30;1.00;;;;;;5106083;28;20636;-76
2021/03/06 08:29:49;;;;;;;4.17;3.77;;;7.60;1.00;;;;;;5105269;28;20873;-72
2021/03/06 08:32:40;;;;;;;4.27;3.87;;;8.00;1.00;;;;;;5099445;28;20478;-69
2021/03/06 08:35:20;;;;;;;4.90;4.28;;;8.30;1.00;;;;;;5102675;28;20447;-75
2021/03/06 08:37:48;;;;;;;5.50;4.37;;;8.60;1.00;;;;;;5107789;28;20528;-77
2021/03/06 08:40:23;;;;;;;3.50;3.20;;;8.60;1.00;;;;;;5106974;28;20451;-75
2021/03/06 08:42:51;;;;;;;4.90;4.40;;;8.70;1.00;;;;;;5104646;28;20443;-74
2021/03/06 08:45:22;;;;;;;4.80;4.35;;;9.00;1.00;;;;;;5108844;28;20546;-76
2021/03/06 08:47:53;;;;;;;7.57;4.63;;;9.30;1.00;;;;;;5105763;28;20244;-75
2021/03/06 08:50:22;;;;;;;4.93;4.07;;;9.40;1.00;;;;;;5105840;28;20486;-74
2021/03/06 08:52:58;;;;;;;4.50;4.20;;;9.50;1.00;;;;;;5105810;28;20456;-74
2021/03/06 08:55:27;;;;;;;5.10;3.50;;;9.70;1.00;;;;;;5103745;28;20447;-72
2021/03/06 08:57:54;;;;;;;5.43;4.37;;;9.90;1.00;;;;;;5084175;28;20552;-73
2021/03/06 09:00:27;;;;;;;4.13;3.70;;;10.10;1.00;;;;;;5106894;28;20453;-74
2021/03/06 09:02:55;;;;;;;4.80;3.97;;;10.30;1.00;;;;;;5078391;28;20460;-74
2021/03/06 09:05:25;;;;;;;5.33;4.93;;;10.40;1.00;;;;;;5103181;28;20469;-69
2021/03/06 09:07:53;;;;;;;5.07;4.00;;;10.60;1.00;;;;;;5107007;28;20500;-70
2021/03/06 09:10:33;;;;;;;4.45;4.05;;;10.80;1.00;;;;;;5095772;28;20527;-71
2021/03/06 09:13:04;;;;;;;4.97;4.57;;;10.70;1.00;;;;;;5105003;28;20450;-70
2021/03/06 09:15:37;;;;;;;5.07;4.63;;;11.10;1.00;;;;;;5101569;28;20243;-75
2021/03/06 09:18:07;;;;;;;3.63;3.30;;;11.20;1.00;;;;;;5107890;27;20478;-72
2021/03/06 09:20:51;;;;;;;4.90;4.17;;;11.40;1.00;;;;;;5097306;28;21124;-72
2021/03/06 09:23:32;;;;;;;4.90;4.50;;;11.50;1.00;;;;;;5106824;27;20446;-73
2021/03/06 09:26:02;;;;;;;3.70;3.38;;;12.10;1.00;;;;;;5093813;27;20444;-74
2021/03/06 09:28:30;;;;;;;4.40;4.10;;;11.80;1.00;;;;;;5102548;27;20250;-74
2021/03/06 09:31:00;;;;;;;4.10;3.80;;;11.80;1.00;;;;;;5101231;27;20475;-74
2021/03/06 09:33:30;;;;;;;4.27;3.70;;;11.90;1.00;;;;;;5097819;28;20511;-75
2021/03/06 09:36:05;;;;;;;4.27;3.90;;;12.00;1.00;;;;;;5098065;28;21101;-75
2021/03/06 09:38:44;;;;;;;3.50;3.20;;;12.30;1.00;;;;;;5110515;27;20458;-75
2021/03/06 09:41:12;;;;;;;3.53;3.23;;;12.40;1.00;;;;;;5107104;28;20458;-74
2021/03/06 09:43:41;;;;;;;4.40;4.00;;;12.70;1.00;;;;;;5110447;28;20451;-74
2021/03/06 09:46:14;;;;;;;4.67;3.20;;;12.80;1.00;;;;;;5105774;28;20463;-73
2021/03/06 09:48:53;;;;;;;3.60;3.30;;;13.00;1.00;;;;;;5122510;27;20455;-74
2021/03/06 09:51:21;;;;;;;4.27;3.87;;;13.10;1.00;;;;;;5105868;28;20486;-75
2021/03/06 09:53:59;;;;;;;3.73;3.40;;;13.30;1.00;;;;;;5107842;28;20452;-75
2021/03/06 09:56:26;;;;;;;3.77;3.40;;;13.50;1.00;;;;;;5101433;28;20479;-75
2021/03/06 09:59:01;;;;;;;5.50;4.07;;;13.70;1.00;;;;;;5110036;28;20445;-75
2021/03/06 10:01:30;;;;;;;4.10;3.80;;;13.90;1.00;;;;;;5101955;28;20436;-75
2021/03/06 10:03:58;;;;;;;3.80;3.50;;;14.00;1.00;;;;;;5087246;28;20819;-75
2021/03/06 10:06:32;;;;;;;3.33;3.13;;;13.90;1.00;;;;;;5110906;28;20450;-74
2021/03/06 10:09:03;;;;;;;3.80;3.50;;;14.00;1.00;;;;;;5095019;28;20532;-75
2021/03/06 10:11:32;;;;;;;3.40;3.07;;;14.10;1.00;;;;;;5090836;28;20475;-74
2021/03/06 10:14:00;;;;;;;3.73;3.33;;;14.20;1.00;;;;;;5092059;28;20518;-74
2021/03/06 10:16:29;;;;;;;3.70;3.33;;;14.20;1.00;;;;;;5100952;28;20483;-74
2021/03/06 10:19:01;;;;;;;3.13;2.50;;;14.30;1.00;;;;;;5107276;28;20939;-74
2021/03/06 10:21:29;;;;;;;4.70;3.40;;;14.60;1.00;;;;;;5107759;28;20959;-75
2021/03/06 10:24:03;;;;;;;3.67;3.37;;;14.70;1.00;;;;;;5092249;28;21248;-75
2021/03/06 10:26:31;;;;;;;4.00;3.20;;;14.80;1.00;;;;;;5105917;28;20478;-75
2021/03/06 10:28:59;;;;;;;2.83;2.63;;;14.60;1.00;;;;;;5107477;28;20455;-75
2021/03/06 10:31:36;;;;;;;3.37;2.77;;;14.60;1.00;;;;;;5090833;28;20498;-74
2021/03/06 10:34:22;;;;;;;3.40;2.60;;;14.30;1.00;;;;;;5088049;28;20961;-75
2021/03/06 10:37:06;;;;;;;2.87;2.67;;;14.50;1.00;;;;;;5092733;28;20478;-74
2021/03/06 10:39:34;;;;;;;3.23;3.03;;;14.50;1.00;;;;;;5108753;28;20511;-75
2021/03/06 10:42:01;;;;;;;3.23;2.93;;;14.70;1.00;;;;;;5109498;28;21063;-74
2021/03/06 10:44:42;;;;;;;2.50;2.30;;;14.90;1.00;;;;;;5109317;28;20535;-74
2021/03/06 10:47:10;;;;;;;2.50;2.30;;;14.90;1.00;;;;;;5109131;28;20452;-73
2021/03/06 10:49:38;;;;;;;2.73;2.53;;;15.20;1.00;;;;;;5090889;28;20445;-74
2021/03/06 10:52:10;;;;;;;3.37;2.70;;;15.40;1.00;;;;;;5106327;28;21055;-74
2021/03/06 10:54:48;;;;;;;2.60;2.40;;;15.40;1.00;;;;;;5107888;28;20478;-74
2021/03/06 10:57:16;;;;;;;2.50;2.30;;;15.80;1.00;;;;;;5102608;28;21044;-75
2021/03/06 10:59:44;;;;;;;3.23;2.93;;;16.20;1.00;;;;;;5083926;28;20450;-74
2021/03/06 11:02:25;;;;;;;3.10;2.90;;;16.50;1.00;;;;;;5109214;28;20525;-75
2021/03/06 11:04:54;;;;;;;3.50;3.00;;;16.70;1.00;;;;;;5109188;28;20481;-73
2021/03/06 11:07:29;;;;;;;3.73;3.43;;;16.80;1.00;;;;;;5117414;27;20536;-74
2021/03/06 11:09:58;;;;;;;3.00;2.80;;;17.20;1.00;;;;;;5106690;28;20532;-74
2021/03/06 11:12:30;;;;;;;2.67;2.47;;;17.40;1.30;;;;;;5107986;28;20464;-74
2021/03/06 11:15:10;;;;;;;2.60;2.40;;;17.80;3.30;;;;;;5110016;28;20910;-74
2021/03/06 11:17:39;;;;;;;2.60;2.50;;;18.00;3.40;;;;;;5108858;28;20823;-74
2021/03/06 11:20:08;;;;;;;3.10;2.53;;;18.00;3.50;;;;;;5108534;28;20450;-74
2021/03/06 11:22:36;;;;;;;3.67;3.27;;;18.30;4.70;;;;;;5102676;28;20454;-74
2021/03/06 11:25:05;;;;;;;3.67;3.37;;;18.30;4.40;;;;;;5106687;28;20456;-74
2021/03/06 11:27:45;;;;;;;2.17;2.07;;;18.40;4.10;;;;;;5106303;28;20870;-74
2021/03/06 11:30:13;;;;;;;3.10;2.93;;;18.40;2.90;;;;;;5088466;28;20509;-74
2021/03/06 11:32:42;;;;;;;3.70;3.40;;;18.30;3.00;;;;;;5105067;28;20449;-75
2021/03/06 11:35:11;;;;;;;2.67;2.20;;;18.40;2.70;;;;;;5110076;28;20531;-74
2021/03/06 11:37:38;;;;;;;2.90;2.60;;;17.90;1.00;;;;;;5089038;28;20465;-73
2021/03/06 11:40:07;;;;;;;2.77;2.57;;;17.40;1.00;;;;;;5108405;28;20947;-74
2021/03/06 11:42:34;;;;;;;2.90;2.70;;;16.70;1.00;;;;;;5106061;28;20517;-74
2021/03/06 11:45:01;;;;;;;2.30;2.20;;;16.30;1.00;;;;;;5107848;28;20463;-74
2021/03/06 11:47:29;;;;;;;2.43;2.30;;;15.80;1.00;;;;;;5106668;28;20474;-74
2021/03/06 11:49:57;;;;;;;2.10;2.00;;;15.60;1.00;;;;;;5109710;28;20455;-74
2021/03/06 11:52:25;;;;;;;2.27;2.07;;;15.20;1.00;;;;;;5106034;28;20572;-74
2021/03/06 11:54:53;;;;;;;2.30;2.10;;;15.20;1.00;;;;;;5104454;28;20456;-74
2021/03/06 11:57:25;;;;;;;2.00;1.90;;;15.10;1.00;;;;;;5114156;27;20510;-74
2021/03/06 11:59:53;;;;;;;2.43;1.97;;;14.90;1.00;;;;;;5100893;28;20476;-74
2021/03/06 12:02:21;;;;;;;2.50;2.30;;;14.80;1.00;;;;;;5100260;28;20982;-74
2021/03/06 12:04:48;;;;;;;21.77;9.60;;;14.40;1.00;;;;;;5108982;28;20455;-74
2021/03/06 12:07:17;;;;;;;3.00;2.40;;;14.30;1.00;;;;;;5107173;28;20510;-74
2021/03/06 12:09:44;;;;;;;3.40;1.67;;;14.30;1.00;;;;;;5107367;28;20452;-74
2021/03/06 12:12:12;;;;;;;2.30;2.10;;;14.40;1.00;;;;;;5088363;28;20470;-75
2021/03/06 12:14:39;;;;;;;2.40;2.20;;;14.10;1.00;;;;;;5108343;28;20952;-74
2021/03/06 12:17:06;;;;;;;2.30;2.03;;;13.80;1.00;;;;;;5108177;28;20489;-74
2021/03/06 12:19:34;;;;;;;2.63;2.10;;;13.40;1.00;;;;;;5089873;28;20487;-74
2021/03/06 12:22:02;;;;;;;1.63;1.53;;;13.30;1.00;;;;;;5105809;28;20439;-73
2021/03/06 12:24:30;;;;;;;1.90;1.80;;;13.30;1.00;;;;;;5106530;28;20553;-74
2021/03/06 12:26:57;;;;;;;2.50;2.30;;;13.40;1.00;;;;;;5105106;28;20481;-74
2021/03/06 12:29:24;;;;;;;1.63;1.53;;;13.50;1.00;;;;;;5105667;28;20442;-74
2021/03/06 12:31:52;;;;;;;1.60;1.50;;;13.70;1.00;;;;;;5088614;28;20566;-73
2021/03/06 12:34:19;;;;;;;1.77;1.40;;;13.70;1.00;;;;;;5104851;28;20453;-74
2021/03/06 12:36:47;;;;;;;1.43;1.33;;;13.50;1.00;;;;;;5089488;28;20552;-74
2021/03/06 12:39:14;;;;;;;1.70;1.60;;;13.40;1.00;;;;;;5108805;28;20480;-73
2021/03/06 12:41:43;;;;;;;2.03;1.87;;;13.60;1.00;;;;;;5110785;28;20972;-74
2021/03/06 12:44:11;;;;;;;1.63;1.40;;;13.20;1.00;;;;;;5128681;27;20677;-74
2021/03/06 12:46:38;;;;;;;1.70;1.60;;;13.00;1.00;;;;;;5095120;28;21047;-74
2021/03/06 12:49:06;;;;;;;2.33;1.90;;;13.00;1.00;;;;;;5110947;28;20517;-75
2021/03/06 12:51:33;;;;;;;1.40;1.30;;;12.90;1.00;;;;;;5093767;28;20465;-73
2021/03/06 12:54:00;;;;;;;1.40;1.30;;;12.80;1.00;;;;;;5110918;28;20453;-74
2021/03/06 12:56:27;;;;;;;1.30;1.20;;;12.60;1.00;;;;;;5107543;28;20876;-74
2021/03/06 12:58:56;;;;;;;2.20;1.67;;;12.70;1.00;;;;;;5111754;28;20869;-74
2021/03/06 13:01:23;;;;;;;1.97;1.70;;;12.70;1.00;;;;;;5109261;28;20449;-73
2021/03/06 13:03:50;;;;;;;1.40;1.30;;;12.80;1.00;;;;;;5092627;28;20456;-72
2021/03/06 13:06:17;;;;;;;2.63;1.03;;;12.90;1.00;;;;;;5110718;28;21018;-74
2021/03/06 13:08:44;;;;;;;3.53;1.20;;;13.10;1.00;;;;;;5092480;28;20449;-74
2021/03/06 13:11:11;;;;;;;1.50;1.40;;;13.20;1.00;;;;;;5110642;28;20522;-74
2021/03/06 13:13:39;;;;;;;1.50;1.40;;;13.00;1.00;;;;;;5106292;28;20441;-74
2021/03/06 13:16:07;;;;;;;1.37;1.27;;;13.00;1.00;;;;;;5092773;28;20456;-74
2021/03/06 13:18:35;;;;;;;1.30;1.20;;;12.90;1.00;;;;;;5087410;28;20441;-74
2021/03/06 13:21:03;;;;;;;1.40;1.30;;;12.90;1.00;;;;;;5110432;28;20441;-74
2021/03/06 13:23:30;;;;;;;1.63;1.20;;;12.40;1.00;;;;;;5108006;28;20460;-74